sensor_id;sensor_type;location;lat;lon;timestamp;pressure;altitude;pressure_sealevel;temperature;humidity
39823;BME280;25499;53.958;10.970;2022-11-15T06:52:01;101039.22;;;5.20;100.00
39823;BME280;25499;53.958;10.970;2022-11-15T06:54:26;101037.78;;;5.33;100.00
39823;BME280;25499;53.958;10.970;2022-11-15T06:59:23;101040.13;;;5.61;100.00
39823;BME280;25499;53.958;10.970;2022-11-15T07:01:49;101047.06;;;5.63;100.00
39823;BME280;25499;53.958;10.970;2022-11-15T07:04:14;101053.06;;;5.61;100.00
39823;BME280;25499;53.958;10.970;2022-11-15T07:06:40;101059.19;;;5.65;100.00
39823;BME280;25499;53.958;10.970;2022-11-15T07:09:05;101059.22;;;5.68;100.00
39823;BME280;25499;53.958;10.970;2022-11-15T07:11:32;101063.47;;;5.65;100.00
39823;BME280;25499;53.958;10.970;2022-11-15T07:13:59;101065.13;;;5.63;100.00
39823;BME280;25499;53.958;10.970;2022-11-15T07:16:25;101070.44;;;5.69;100.00
39823;BME280;25499;53.958;10.970;2022-11-15T07:18:50;101069.66;;;5.73;100.00
39823;BME280;25499;53.958;10.970;2022-11-15T07:21:15;101067.97;;;5.75;100.00
39823;BME280;25499;53.958;10.970;2022-11-15T07:23:41;101070.81;;;5.86;100.00
39823;BME280;25499;53.958;10.970;2022-11-15T07:26:07;101067.34;;;5.85;100.00
39823;BME280;25499;53.958;10.970;2022-11-15T07:28:33;101071.06;;;5.96;100.00
39823;BME280;25499;53.958;10.970;2022-11-15T07:31:06;101065.78;;;5.93;100.00
39823;BME280;25499;53.958;10.970;2022-11-15T07:33:31;101068.47;;;5.96;100.00
39823;BME280;25499;53.958;10.970;2022-11-15T07:36:01;101069.38;;;5.98;100.00
39823;BME280;25499;53.958;10.970;2022-11-15T07:38:28;101082.69;;;6.17;100.00
39823;BME280;25499;53.958;10.970;2022-11-15T07:40:58;101075.47;;;6.02;100.00
39823;BME280;25499;53.958;10.970;2022-11-15T07:43:24;101074.72;;;6.06;100.00
39823;BME280;25499;53.958;10.970;2022-11-15T07:45:50;101066.06;;;6.06;100.00
39823;BME280;25499;53.958;10.970;2022-11-15T07:48:15;101072.38;;;6.19;100.00
39823;BME280;25499;53.958;10.970;2022-11-15T07:50:41;101068.34;;;6.33;100.00
39823;BME280;25499;53.958;10.970;2022-11-15T07:53:08;101073.53;;;6.34;100.00
39823;BME280;25499;53.958;10.970;2022-11-15T07:55:34;101070.38;;;6.49;100.00
39823;BME280;25499;53.958;10.970;2022-11-15T07:58:10;101074.53;;;6.41;100.00
39823;BME280;25499;53.958;10.970;2022-11-15T08:00:36;101075.66;;;6.54;100.00
39823;BME280;25499;53.958;10.970;2022-11-15T08:05:32;101076.59;;;6.59;100.00
39823;BME280;25499;53.958;10.970;2022-11-15T08:07:58;101071.22;;;6.47;100.00
39823;BME280;25499;53.958;10.970;2022-11-15T08:10:24;101073.94;;;6.56;100.00
39823;BME280;25499;53.958;10.970;2022-11-15T08:13:00;101072.06;;;6.47;100.00
39823;BME280;25499;53.958;10.970;2022-11-15T08:15:26;101067.03;;;6.55;100.00
39823;BME280;25499;53.958;10.970;2022-11-15T08:17:56;101068.66;;;6.48;100.00
39823;BME280;25499;53.958;10.970;2022-11-15T08:20:22;101073.06;;;6.54;100.00
39823;BME280;25499;53.958;10.970;2022-11-15T08:22:48;101072.25;;;6.58;100.00
39823;BME280;25499;53.958;10.970;2022-11-15T08:25:13;101073.94;;;6.56;100.00
39823;BME280;25499;53.958;10.970;2022-11-15T08:27:39;101073.25;;;6.65;100.00
39823;BME280;25499;53.958;10.970;2022-11-15T08:30:04;101064.53;;;6.60;100.00
39823;BME280;25499;53.958;10.970;2022-11-15T08:32:31;101067.22;;;6.64;100.00
39823;BME280;25499;53.958;10.970;2022-11-15T08:34:57;101062.97;;;6.69;100.00
39823;BME280;25499;53.958;10.970;2022-11-15T08:37:22;101075.16;;;6.75;100.00
39823;BME280;25499;53.958;10.970;2022-11-15T08:39:47;101075.44;;;6.92;100.00
39823;BME280;25499;53.958;10.970;2022-11-15T08:42:13;101070.22;;;6.89;100.00
39823;BME280;25499;53.958;10.970;2022-11-15T08:44:40;101074.66;;;6.96;100.00
39823;BME280;25499;53.958;10.970;2022-11-15T08:47:05;101079.22;;;7.13;100.00
39823;BME280;25499;53.958;10.970;2022-11-15T08:49:30;101075.84;;;7.15;100.00
39823;BME280;25499;53.958;10.970;2022-11-15T08:51:56;101080.16;;;7.18;100.00
39823;BME280;25499;53.958;10.970;2022-11-15T08:54:21;101076.78;;;7.20;100.00
39823;BME280;25499;53.958;10.970;2022-11-15T08:56:47;101077.66;;;7.22;100.00
39823;BME280;25499;53.958;10.970;2022-11-15T08:59:13;101066.63;;;7.34;100.00
39823;BME280;25499;53.958;10.970;2022-11-15T09:01:38;101076.88;;;7.28;100.00
39823;BME280;25499;53.958;10.970;2022-11-15T09:04:03;101070.88;;;7.31;100.00
39823;BME280;25499;53.958;10.970;2022-11-15T09:06:29;101078.00;;;7.44;100.00
39823;BME280;25499;53.958;10.970;2022-11-15T09:08:56;101071.97;;;7.46;100.00
39823;BME280;25499;53.958;10.970;2022-11-15T09:11:21;101066.78;;;7.43;100.00
39823;BME280;25499;53.958;10.970;2022-11-15T09:13:48;101069.63;;;7.60;100.00
39823;BME280;25499;53.958;10.970;2022-11-15T09:16:14;101072.22;;;7.60;100.00
39823;BME280;25499;53.958;10.970;2022-11-15T09:18:41;101075.97;;;7.82;100.00
39823;BME280;25499;53.958;10.970;2022-11-15T09:21:07;101068.28;;;7.92;100.00
39823;BME280;25499;53.958;10.970;2022-11-15T09:23:33;101067.47;;;7.96;100.00
39823;BME280;25499;53.958;10.970;2022-11-15T09:26:00;101065.78;;;7.98;100.00
39823;BME280;25499;53.958;10.970;2022-11-15T09:28:27;101074.56;;;8.09;100.00
39823;BME280;25499;53.958;10.970;2022-11-15T09:31:11;101074.72;;;8.23;100.00
39823;BME280;25499;53.958;10.970;2022-11-15T09:33:37;101074.03;;;8.39;100.00
39823;BME280;25499;53.958;10.970;2022-11-15T09:36:04;101075.09;;;8.54;100.00
39823;BME280;25499;53.958;10.970;2022-11-15T09:38:31;101071.69;;;8.59;100.00
39823;BME280;25499;53.958;10.970;2022-11-15T09:44:07;101061.31;;;8.59;100.00
39823;BME280;25499;53.958;10.970;2022-11-15T09:47:34;101066.53;;;8.61;100.00
39823;BME280;25499;53.958;10.970;2022-11-15T09:49:30;101065.63;;;8.57;100.00
39823;BME280;25499;53.958;10.970;2022-11-15T09:51:56;101063.94;;;8.63;100.00
39823;BME280;25499;53.958;10.970;2022-11-15T09:54:29;101064.69;;;8.49;100.00
39823;BME280;25499;53.958;10.970;2022-11-15T09:57:02;101069.91;;;8.54;100.00
39823;BME280;25499;53.958;10.970;2022-11-15T10:03:16;101072.53;;;8.57;100.00
39823;BME280;25499;53.958;10.970;2022-11-15T10:05:47;101067.28;;;8.51;100.00
39823;BME280;25499;53.958;10.970;2022-11-15T10:10:45;101069.09;;;8.58;100.00
39823;BME280;25499;53.958;10.970;2022-11-15T10:13:47;101055.44;;;8.76;100.00
39823;BME280;25499;53.958;10.970;2022-11-15T10:16:45;101054.66;;;8.88;100.00
39823;BME280;25499;53.958;10.970;2022-11-15T10:24:27;101047.06;;;9.12;100.00
39823;BME280;25499;53.958;10.970;2022-11-15T10:26:56;101043.53;;;9.06;100.00
39823;BME280;25499;53.958;10.970;2022-11-15T10:29:23;101048.78;;;9.10;100.00
39823;BME280;25499;53.958;10.970;2022-11-15T10:31:49;101048.72;;;9.00;100.00
39823;BME280;25499;53.958;10.970;2022-11-15T10:34:20;101046.03;;;8.90;100.00
39823;BME280;25499;53.958;10.970;2022-11-15T10:36:47;101041.78;;;9.00;100.00
39823;BME280;25499;53.958;10.970;2022-11-15T10:39:19;101034.84;;;9.01;100.00
39823;BME280;25499;53.958;10.970;2022-11-15T10:41:44;101035.75;;;9.06;100.00
39823;BME280;25499;53.958;10.970;2022-11-15T10:44:30;101031.34;;;8.97;100.00
39823;BME280;25499;53.958;10.970;2022-11-15T10:49:26;101015.09;;;9.24;100.00
39823;BME280;25499;53.958;10.970;2022-11-15T10:51:58;101023.75;;;9.25;100.00
39823;BME280;25499;53.958;10.970;2022-11-15T10:54:27;101023.66;;;9.06;100.00
39823;BME280;25499;53.958;10.970;2022-11-15T10:56:56;101030.72;;;9.27;100.00
39823;BME280;25499;53.958;10.970;2022-11-15T10:59:32;101028.19;;;9.40;100.00
39823;BME280;25499;53.958;10.970;2022-11-15T11:01:59;101031.66;;;9.37;100.00
39823;BME280;25499;53.958;10.970;2022-11-15T11:04:25;101031.78;;;9.56;100.00
39823;BME280;25499;53.958;10.970;2022-11-15T11:06:58;101030.09;;;9.71;100.00
39823;BME280;25499;53.958;10.970;2022-11-15T11:09:36;101028.31;;;9.60;100.00
39823;BME280;25499;53.958;10.970;2022-11-15T11:12:03;101027.47;;;9.62;100.00
39823;BME280;25499;53.958;10.970;2022-11-15T11:14:31;101015.38;;;9.67;100.00
39823;BME280;25499;53.958;10.970;2022-11-15T11:20:10;101011.06;;;9.79;100.00
39823;BME280;25499;53.958;10.970;2022-11-15T11:25:35;100997.25;;;9.84;100.00
39823;BME280;25499;53.958;10.970;2022-11-15T11:31:19;100989.38;;;9.66;100.00
39823;BME280;25499;53.958;10.970;2022-11-15T11:45:22;100996.34;;;9.84;100.00
39823;BME280;25499;53.958;10.970;2022-11-15T11:48:12;100985.06;;;9.80;100.00
39823;BME280;25499;53.958;10.970;2022-11-15T11:50:38;100985.09;;;9.85;100.00
39823;BME280;25499;53.958;10.970;2022-11-15T11:55:54;100981.63;;;9.89;100.00
39823;BME280;25499;53.958;10.970;2022-11-15T11:58:26;100978.19;;;9.95;100.00
39823;BME280;25499;53.958;10.970;2022-11-15T12:01:02;100977.31;;;9.93;100.00
39823;BME280;25499;53.958;10.970;2022-11-15T12:03:38;100973.00;;;9.93;100.00
39823;BME280;25499;53.958;10.970;2022-11-15T12:09:06;100972.13;;;9.88;100.00
39823;BME280;25499;53.958;10.970;2022-11-15T12:11:58;100974.72;;;9.88;100.00
39823;BME280;25499;53.958;10.970;2022-11-15T12:14:33;100974.69;;;9.93;100.00
39823;BME280;25499;53.958;10.970;2022-11-15T12:17:03;100966.91;;;9.85;100.00
39823;BME280;25499;53.958;10.970;2022-11-15T12:19:29;100961.69;;;9.91;100.00
39823;BME280;25499;53.958;10.970;2022-11-15T12:24:28;100952.13;;;9.75;100.00
39823;BME280;25499;53.958;10.970;2022-11-15T12:27:22;100958.16;;;9.70;100.00
39823;BME280;25499;53.958;10.970;2022-11-15T12:30:02;100957.34;;;9.79;100.00
39823;BME280;25499;53.958;10.970;2022-11-15T12:32:35;100957.28;;;9.67;100.00
39823;BME280;25499;53.958;10.970;2022-11-15T12:35:06;100958.16;;;9.70;100.00
39823;BME280;25499;53.958;10.970;2022-11-15T12:37:53;100959.88;;;9.68;100.00
39823;BME280;25499;53.958;10.970;2022-11-15T12:40:22;100952.16;;;9.78;100.00
39823;BME280;25499;53.958;10.970;2022-11-15T12:45:43;100953.06;;;9.98;100.00
39823;BME280;25499;53.958;10.970;2022-11-15T12:58:38;100947.00;;;10.16;100.00
39823;BME280;25499;53.958;10.970;2022-11-15T13:01:10;100937.50;;;10.26;100.00
39823;BME280;25499;53.958;10.970;2022-11-15T13:04:08;100934.06;;;10.32;100.00
39823;BME280;25499;53.958;10.970;2022-11-15T13:06:43;100926.25;;;10.39;99.64
39823;BME280;25499;53.958;10.970;2022-11-15T13:11:53;100928.84;;;10.47;99.46
39823;BME280;25499;53.958;10.970;2022-11-15T13:19:46;100921.06;;;10.52;98.35
39823;BME280;25499;53.958;10.970;2022-11-15T13:22:12;100921.94;;;10.43;99.40
39823;BME280;25499;53.958;10.970;2022-11-15T13:25:00;100919.34;;;10.48;99.46
39823;BME280;25499;53.958;10.970;2022-11-15T13:27:26;100908.03;;;10.49;99.45
39823;BME280;25499;53.958;10.970;2022-11-15T13:29:56;100906.31;;;10.46;98.83
39823;BME280;25499;53.958;10.970;2022-11-15T13:32:22;100901.97;;;10.50;98.85
39823;BME280;25499;53.958;10.970;2022-11-15T13:34:49;100902.84;;;10.55;98.65
39823;BME280;25499;53.958;10.970;2022-11-15T13:39:46;100905.44;;;10.50;99.06
39823;BME280;25499;53.958;10.970;2022-11-15T13:42:20;100904.56;;;10.53;98.66
39823;BME280;25499;53.958;10.970;2022-11-15T13:44:59;100901.94;;;10.59;98.74
39823;BME280;25499;53.958;10.970;2022-11-15T13:47:30;100895.03;;;10.59;98.22
39823;BME280;25499;53.958;10.970;2022-11-15T13:50:00;100890.69;;;10.55;98.27
39823;BME280;25499;53.958;10.970;2022-11-15T13:52:36;100881.16;;;10.48;97.86
39823;BME280;25499;53.958;10.970;2022-11-15T13:55:15;100878.53;;;10.53;98.17
39823;BME280;25499;53.958;10.970;2022-11-15T13:57:45;100867.28;;;10.51;97.79
39823;BME280;25499;53.958;10.970;2022-11-15T14:02:56;100879.41;;;10.47;97.87
39823;BME280;25499;53.958;10.970;2022-11-15T14:05:24;100882.91;;;10.51;97.85
39823;BME280;25499;53.958;10.970;2022-11-15T14:10:31;100887.22;;;10.47;97.47
39823;BME280;25499;53.958;10.970;2022-11-15T14:12:57;100884.63;;;10.45;97.47
39823;BME280;25499;53.958;10.970;2022-11-15T14:15:37;100878.56;;;10.39;97.85
39823;BME280;25499;53.958;10.970;2022-11-15T14:18:03;100882.00;;;10.33;98.33
39823;BME280;25499;53.958;10.970;2022-11-15T14:25:33;100884.59;;;10.25;98.87
39823;BME280;25499;53.958;10.970;2022-11-15T14:30:50;100888.94;;;10.19;99.07
39823;BME280;25499;53.958;10.970;2022-11-15T14:33:36;100883.72;;;10.19;99.55
39823;BME280;25499;53.958;10.970;2022-11-15T14:36:13;100883.72;;;10.19;98.98
39823;BME280;25499;53.958;10.970;2022-11-15T14:38:40;100888.06;;;10.12;99.35
39823;BME280;25499;53.958;10.970;2022-11-15T14:41:05;100890.63;;;10.04;99.91
39823;BME280;25499;53.958;10.970;2022-11-15T14:43:31;100888.03;;;9.98;100.00
39823;BME280;25499;53.958;10.970;2022-11-15T14:45:56;100884.56;;;9.95;100.00
39823;BME280;25499;53.958;10.970;2022-11-15T14:48:22;100888.88;;;9.94;100.00
39823;BME280;25499;53.958;10.970;2022-11-15T14:50:48;100883.69;;;9.85;100.00
39823;BME280;25499;53.958;10.970;2022-11-15T14:53:15;100880.22;;;9.80;100.00
39823;BME280;25499;53.958;10.970;2022-11-15T14:55:41;100878.41;;;9.63;100.00
39823;BME280;25499;53.958;10.970;2022-11-15T14:58:08;100876.63;;;9.47;nan
39823;BME280;25499;53.958;10.970;2022-11-15T15:00:35;100865.38;;;9.39;100.00
39823;BME280;25499;53.958;10.970;2022-11-15T15:03:03;100860.16;;;9.39;100.00
39823;BME280;25499;53.958;10.970;2022-11-15T15:05:38;100849.72;;;9.20;100.00
39823;BME280;25499;53.958;10.970;2022-11-15T15:08:04;100837.56;;;9.18;100.00
39823;BME280;25499;53.958;10.970;2022-11-15T15:10:35;100834.13;;;9.19;100.00
39823;BME280;25499;53.958;10.970;2022-11-15T15:13:03;100836.78;;;9.36;100.00
39823;BME280;25499;53.958;10.970;2022-11-15T15:15:36;100828.94;;;9.29;100.00
39823;BME280;25499;53.958;10.970;2022-11-15T15:18:03;100839.41;;;9.40;100.00
39823;BME280;25499;53.958;10.970;2022-11-15T15:20:31;100836.72;;;9.26;100.00
39823;BME280;25499;53.958;10.970;2022-11-15T15:22:57;100842.81;;;9.25;100.00
39823;BME280;25499;53.958;10.970;2022-11-15T15:25:24;100831.50;;;9.17;100.00
39823;BME280;25499;53.958;10.970;2022-11-15T15:27:52;100829.81;;;9.28;100.00
39823;BME280;25499;53.958;10.970;2022-11-15T15:30:17;100829.81;;;9.31;100.00
39823;BME280;25499;53.958;10.970;2022-11-15T15:32:43;100832.41;;;9.30;100.00
39823;BME280;25499;53.958;10.970;2022-11-15T15:35:14;100827.22;;;9.24;100.00
39823;BME280;25499;53.958;10.970;2022-11-15T15:40:49;100827.16;;;9.18;100.00
39823;BME280;25499;53.958;10.970;2022-11-15T15:43:18;100832.34;;;9.13;100.00
39823;BME280;25499;53.958;10.970;2022-11-15T15:45:46;100827.16;;;9.08;100.00
39823;BME280;25499;53.958;10.970;2022-11-15T16:01:30;100827.06;;;8.91;100.00
39823;BME280;25499;53.958;10.970;2022-11-15T16:04:41;100831.34;;;8.83;100.00
39823;BME280;25499;53.958;10.970;2022-11-15T16:11:14;100839.97;;;8.79;100.00
39823;BME280;25499;53.958;10.970;2022-11-15T16:14:40;100838.19;;;8.72;100.00
39823;BME280;25499;53.958;10.970;2022-11-15T16:18:03;100832.09;;;8.62;100.00
39823;BME280;25499;53.958;10.970;2022-11-15T16:22:59;100840.69;;;8.56;100.00
39823;BME280;25499;53.958;10.970;2022-11-15T16:25:25;100839.81;;;8.51;100.00
39823;BME280;25499;53.958;10.970;2022-11-15T16:27:50;100848.44;;;8.52;100.00
39823;BME280;25499;53.958;10.970;2022-11-15T16:30:19;100839.78;;;8.44;100.00
39823;BME280;25499;53.958;10.970;2022-11-15T16:32:45;100832.84;;;8.44;100.00
39823;BME280;25499;53.958;10.970;2022-11-15T16:35:11;100848.41;;;8.43;100.00
39823;BME280;25499;53.958;10.970;2022-11-15T16:37:39;100838.81;;;8.37;100.00
39823;BME280;25499;53.958;10.970;2022-11-15T16:40:29;100831.00;;;8.32;100.00
39823;BME280;25499;53.958;10.970;2022-11-15T16:42:56;100830.97;;;8.28;100.00
39823;BME280;25499;53.958;10.970;2022-11-15T16:45:23;100834.41;;;8.30;100.00
39823;BME280;25499;53.958;10.970;2022-11-15T16:47:48;100835.34;;;8.36;100.00
39823;BME280;25499;53.958;10.970;2022-11-15T16:50:21;100831.84;;;8.33;100.00
39823;BME280;25499;53.958;10.970;2022-11-15T16:52:52;100835.34;;;8.33;100.00
39823;BME280;25499;53.958;10.970;2022-11-15T16:55:19;100824.19;;;8.45;100.00
39823;BME280;25499;53.958;10.970;2022-11-15T16:57:44;100823.34;;;8.46;100.00
39823;BME280;25499;53.958;10.970;2022-11-15T17:00:11;100827.66;;;8.44;100.00
39823;BME280;25499;53.958;10.970;2022-11-15T17:02:38;100827.69;;;8.47;100.00
39823;BME280;25499;53.958;10.970;2022-11-15T17:05:03;100823.38;;;8.49;100.00
39823;BME280;25499;53.958;10.970;2022-11-15T17:07:29;100822.50;;;8.49;100.00
39823;BME280;25499;53.958;10.970;2022-11-15T17:09:54;100815.59;;;8.49;100.00
39823;BME280;25499;53.958;10.970;2022-11-15T17:12:24;100816.41;;;8.44;100.00
39823;BME280;25499;53.958;10.970;2022-11-15T17:14:53;100815.59;;;8.51;100.00
39823;BME280;25499;53.958;10.970;2022-11-15T17:17:19;100816.44;;;8.51;100.00
39823;BME280;25499;53.958;10.970;2022-11-15T17:19:45;100816.47;;;8.53;100.00
39823;BME280;25499;53.958;10.970;2022-11-15T17:22:11;100819.88;;;8.46;100.00
39823;BME280;25499;53.958;10.970;2022-11-15T17:24:36;100825.09;;;8.49;100.00
39823;BME280;25499;53.958;10.970;2022-11-15T17:27:01;100821.59;;;8.47;100.00
39823;BME280;25499;53.958;10.970;2022-11-15T17:29:27;100823.31;;;8.45;100.00
39823;BME280;25499;53.958;10.970;2022-11-15T17:31:54;100821.59;;;8.44;100.00
39823;BME280;25499;53.958;10.970;2022-11-15T17:34:20;100818.06;;;8.35;100.00
39823;BME280;25499;53.958;10.970;2022-11-15T17:36:45;100825.81;;;8.32;100.00
39823;BME280;25499;53.958;10.970;2022-11-15T17:39:11;100821.50;;;8.34;100.00
39823;BME280;25499;53.958;10.970;2022-11-15T17:41:37;100831.00;;;8.34;100.00
39823;BME280;25499;53.958;10.970;2022-11-15T17:44:02;100824.06;;;8.30;100.00
39823;BME280;25499;53.958;10.970;2022-11-15T17:46:28;100830.97;;;8.28;100.00
39823;BME280;25499;53.958;10.970;2022-11-15T17:48:54;100827.47;;;8.24;100.00
39823;BME280;25499;53.958;10.970;2022-11-15T17:51:20;100830.09;;;8.26;100.00
39823;BME280;25499;53.958;10.970;2022-11-15T17:53:48;100824.00;;;8.22;100.00
39823;BME280;25499;53.958;10.970;2022-11-15T17:56:19;100822.25;;;8.16;100.00
39823;BME280;25499;53.958;10.970;2022-11-15T17:58:56;100817.81;;;8.08;100.00
39823;BME280;25499;53.958;10.970;2022-11-15T18:01:23;100813.47;;;8.02;100.00
39823;BME280;25499;53.958;10.970;2022-11-15T18:03:49;100821.25;;;8.03;100.00
39823;BME280;25499;53.958;10.970;2022-11-15T18:06:16;100811.69;;;7.95;100.00
39823;BME280;25499;53.958;10.970;2022-11-15T18:08:43;100811.66;;;7.92;100.00
39823;BME280;25499;53.958;10.970;2022-11-15T18:11:11;100804.69;;;7.84;100.00
39823;BME280;25499;53.958;10.970;2022-11-15T18:13:38;100799.50;;;7.84;100.00
39823;BME280;25499;53.958;10.970;2022-11-15T18:16:05;100788.25;;;7.82;100.00
39823;BME280;25499;53.958;10.970;2022-11-15T18:18:33;100802.94;;;7.83;100.00
39823;BME280;25499;53.958;10.970;2022-11-15T18:23:28;100785.69;;;7.85;100.00
39823;BME280;25499;53.958;10.970;2022-11-15T18:25:53;100786.59;;;7.88;100.00
39823;BME280;25499;53.958;10.970;2022-11-15T18:28:19;100790.00;;;7.87;100.00
39823;BME280;25499;53.958;10.970;2022-11-15T18:30:44;100779.66;;;7.87;100.00
39823;BME280;25499;53.958;10.970;2022-11-15T18:33:10;100786.56;;;7.84;100.00
39823;BME280;25499;53.958;10.970;2022-11-15T18:35:35;100777.00;;;7.77;100.00
39823;BME280;25499;53.958;10.970;2022-11-15T18:38:00;100786.44;;;7.74;100.00
39823;BME280;25499;53.958;10.970;2022-11-15T18:40:26;100795.88;;;7.67;100.00
39823;BME280;25499;53.958;10.970;2022-11-15T18:42:54;100788.97;;;7.66;100.00
39823;BME280;25499;53.958;10.970;2022-11-15T18:45:19;100790.69;;;7.64;100.00
39823;BME280;25499;53.958;10.970;2022-11-15T18:47:45;100795.88;;;7.67;100.00
39823;BME280;25499;53.958;10.970;2022-11-15T18:50:10;100804.56;;;7.69;100.00
39823;BME280;25499;53.958;10.970;2022-11-15T18:52:36;100805.44;;;7.71;100.00
39823;BME280;25499;53.958;10.970;2022-11-15T18:55:01;100801.97;;;7.69;100.00
39823;BME280;25499;53.958;10.970;2022-11-15T18:57:27;100792.41;;;7.65;100.00
39823;BME280;25499;53.958;10.970;2022-11-15T18:59:52;100792.38;;;7.63;100.00
39823;BME280;25499;53.958;10.970;2022-11-15T19:02:17;100799.25;;;7.58;100.00
39823;BME280;25499;53.958;10.970;2022-11-15T19:04:43;100795.81;;;7.59;100.00
39823;BME280;25499;53.958;10.970;2022-11-15T19:07:08;100806.13;;;7.55;100.00
39823;BME280;25499;53.958;10.970;2022-11-15T19:09:34;100798.28;;;7.47;100.00
39823;BME280;25499;53.958;10.970;2022-11-15T19:11:59;100811.25;;;7.50;100.00
39823;BME280;25499;53.958;10.970;2022-11-15T19:14:25;100802.63;;;7.50;100.00
39823;BME280;25499;53.958;10.970;2022-11-15T19:16:52;100801.78;;;7.51;100.00
39823;BME280;25499;53.958;10.970;2022-11-15T19:19:23;100796.53;;;7.46;100.00
39823;BME280;25499;53.958;10.970;2022-11-15T19:21:49;100795.66;;;7.42;100.00
39823;BME280;25499;53.958;10.970;2022-11-15T19:24:15;100796.50;;;7.43;100.00
39823;BME280;25499;53.958;10.970;2022-11-15T19:26:40;100802.47;;;7.36;100.00
39823;BME280;25499;53.958;10.970;2022-11-15T19:29:07;100809.44;;;7.38;100.00
39823;BME280;25499;53.958;10.970;2022-11-15T19:31:37;100812.00;;;7.37;100.00
39823;BME280;25499;53.958;10.970;2022-11-15T19:34:04;100824.06;;;7.36;100.00
39823;BME280;25499;53.958;10.970;2022-11-15T19:36:32;100828.38;;;7.36;100.00
39823;BME280;25499;53.958;10.970;2022-11-15T19:38:59;100814.50;;;7.29;100.00
39823;BME280;25499;53.958;10.970;2022-11-15T19:41:29;100804.97;;;7.25;100.00
39823;BME280;25499;53.958;10.970;2022-11-15T19:43:55;100791.06;;;7.17;100.00
39823;BME280;25499;53.958;10.970;2022-11-15T19:46:21;100799.72;;;7.20;100.00
39823;BME280;25499;53.958;10.970;2022-11-15T19:48:48;100793.59;;;7.14;100.00
39823;BME280;25499;53.958;10.970;2022-11-15T19:51:19;100787.53;;;7.10;100.00
39823;BME280;25499;53.958;10.970;2022-11-15T19:53:51;100790.91;;;7.06;100.00
39823;BME280;25499;53.958;10.970;2022-11-15T19:56:18;100795.19;;;7.02;100.00
39823;BME280;25499;53.958;10.970;2022-11-15T19:58:44;100791.66;;;6.96;100.00
39823;BME280;25499;53.958;10.970;2022-11-15T20:03:45;100797.88;;;7.08;100.00
39823;BME280;25499;53.958;10.970;2022-11-15T20:06:14;100802.16;;;7.06;100.00
39823;BME280;25499;53.958;10.970;2022-11-15T20:08:43;100796.09;;;7.06;100.00
39823;BME280;25499;53.958;10.970;2022-11-15T20:11:11;100791.78;;;7.05;100.00
39823;BME280;25499;53.958;10.970;2022-11-15T20:13:37;100791.81;;;7.06;100.00
39823;BME280;25499;53.958;10.970;2022-11-15T20:16:02;100792.59;;;7.02;100.00
39823;BME280;25499;53.958;10.970;2022-11-15T20:18:28;100788.31;;;7.06;100.00
39823;BME280;25499;53.958;10.970;2022-11-15T20:20:54;100778.78;;;7.02;100.00
39823;BME280;25499;53.958;10.970;2022-11-15T20:23:26;100796.06;;;7.03;100.00
39823;BME280;25499;53.958;10.970;2022-11-15T20:25:52;100791.03;;;7.15;100.00
39823;BME280;25499;53.958;10.970;2022-11-15T20:28:20;100785.88;;;7.17;100.00
39823;BME280;25499;53.958;10.970;2022-11-15T20:30:46;100774.59;;;7.10;100.00
39823;BME280;25499;53.958;10.970;2022-11-15T20:33:13;100787.47;;;7.05;100.00
39823;BME280;25499;53.958;10.970;2022-11-15T20:35:39;100790.03;;;7.04;100.00
39823;BME280;25499;53.958;10.970;2022-11-15T20:38:06;100788.28;;;7.01;100.00
39823;BME280;25499;53.958;10.970;2022-11-15T20:40:32;100793.47;;;7.01;100.00
39823;BME280;25499;53.958;10.970;2022-11-15T20:42:57;100788.25;;;6.98;100.00
39823;BME280;25499;53.958;10.970;2022-11-15T20:45:23;100787.22;;;6.85;100.00
39823;BME280;25499;53.958;10.970;2022-11-15T20:47:49;100780.22;;;6.78;100.00
39823;BME280;25499;53.958;10.970;2022-11-15T20:50:14;100777.53;;;6.67;100.00
39823;BME280;25499;53.958;10.970;2022-11-15T20:52:40;100781.66;;;6.56;100.00
39823;BME280;25499;53.958;10.970;2022-11-15T20:55:05;100773.94;;;6.59;100.00
39823;BME280;25499;53.958;10.970;2022-11-15T20:57:32;100759.28;;;6.58;100.00
39823;BME280;25499;53.958;10.970;2022-11-15T20:59:58;100781.78;;;6.64;100.00
39823;BME280;25499;53.958;10.970;2022-11-15T21:02:23;100773.22;;;6.69;100.00
39823;BME280;25499;53.958;10.970;2022-11-15T21:04:48;100777.38;;;6.58;100.00
39823;BME280;25499;53.958;10.970;2022-11-15T21:07:14;100778.16;;;6.51;100.00
39823;BME280;25499;53.958;10.970;2022-11-15T21:09:39;100772.09;;;6.49;100.00
